Time;durP1;ratioP1;P1;durP2;ratioP2;P2;SDS_P1;SDS_P2;PMS_P1;PMS_P2;Temp;Humidity;BMP_temperature;BMP_pressure;BME280_temperature;BME280_humidity;BME280_pressure;Samples;Min_cycle;Max_cycle;Signal;HPM_P1;HPM_P2
2021/07/31 00:02:02;;;;;;;5.75;2.30;;;;;;;19.98;59.04;99732.69;5110728;27;20057;-81
2021/07/31 00:04:30;;;;;;;2.97;2.25;;;;;;;19.95;59.32;99729.31;5087825;27;20809;-81
2021/07/31 00:06:56;;;;;;;4.70;2.35;;;;;;;19.91;59.32;99735.97;5108962;27;20040;-79
2021/07/31 00:09:23;;;;;;;4.70;2.22;;;;;;;19.90;59.65;99741.47;5108721;27;20064;-80
2021/07/31 00:11:50;;;;;;;4.78;2.33;;;;;;;19.84;59.31;99737.53;5114245;27;20059;-82
2021/07/31 00:14:16;;;;;;;3.38;1.90;;;;;;;19.80;59.17;99752.28;5098738;28;20513;-79
2021/07/31 00:16:43;;;;;;;7.45;2.17;;;;;;;19.77;58.94;99749.88;5098465;28;20452;-81
2021/07/31 00:19:10;;;;;;;4.28;1.85;;;;;;;19.74;57.88;99752.84;5094102;28;20052;-83
2021/07/31 00:21:37;;;;;;;4.60;1.90;;;;;;;19.74;57.29;99752.00;5109295;27;20053;-81
2021/07/31 00:24:04;;;;;;;4.63;1.75;;;;;;;19.73;56.54;99750.31;5114550;27;20065;-82
2021/07/31 00:26:31;;;;;;;5.65;1.58;;;;;;;19.72;56.14;99749.47;5111687;27;20494;-80
2021/07/31 00:28:57;;;;;;;3.50;1.50;;;;;;;19.68;55.93;99748.03;5107448;28;20050;-82
2021/07/31 00:31:24;;;;;;;3.60;1.50;;;;;;;19.66;55.44;99752.75;5129972;27;20399;-82
2021/07/31 00:33:51;;;;;;;3.25;1.65;;;;;;;19.63;55.03;99746.81;5115475;27;20051;-82
2021/07/31 00:36:18;;;;;;;1.98;1.20;;;;;;;19.61;54.46;99737.06;5101304;28;20047;-81
2021/07/31 00:38:44;;;;;;;2.75;1.35;;;;;;;19.60;54.11;99742.56;5121293;27;20506;-82
2021/07/31 00:41:12;;;;;;;3.67;1.60;;;;;;;19.57;54.28;99740.16;5113029;27;20047;-82
2021/07/31 00:43:39;;;;;;;3.97;1.20;;;;;;;19.52;54.19;99745.97;5113698;27;20044;-81
2021/07/31 00:46:06;;;;;;;3.55;1.27;;;;;;;19.45;54.02;99741.31;5114036;27;20036;-82
2021/07/31 00:48:37;;;;;;;2.90;1.30;;;;;;;19.44;54.38;99740.44;5111449;28;20039;-81
2021/07/31 00:51:04;;;;;;;3.58;1.42;;;;;;;19.40;54.23;99739.03;5125083;27;20130;-81
2021/07/31 00:53:32;;;;;;;4.25;1.38;;;;;;;19.38;54.57;99735.66;5128706;28;20083;-82
2021/07/31 00:55:59;;;;;;;5.30;1.45;;;;;;;19.38;54.80;99734.81;5129196;27;20044;-82
2021/07/31 00:58:26;;;;;;;4.68;1.30;;;;;;;19.38;54.74;99732.13;5131337;27;20225;-82
2021/07/31 01:00:53;;;;;;;4.30;1.40;;;;;;;19.34;54.60;99728.03;5123026;28;20047;-82
2021/07/31 01:03:20;;;;;;;6.15;1.45;;;;;;;19.32;54.80;99732.72;5130576;28;20040;-82
2021/07/31 01:05:47;;;;;;;3.35;1.38;;;;;;;19.32;54.93;99740.75;5136489;27;20249;-82
2021/07/31 01:08:13;;;;;;;3.58;1.25;;;;;;;19.29;55.28;99739.22;5136625;27;20070;-82
2021/07/31 01:10:42;;;;;;;3.08;1.50;;;;;;;19.26;55.67;99728.75;5126406;28;20040;-79
2021/07/31 01:13:11;;;;;;;6.80;1.70;;;;;;;19.23;55.98;99723.66;5115833;28;20054;-83
2021/07/31 01:15:58;;;;;;;6.88;1.50;;;;;;;19.19;56.25;99722.28;5117738;27;20048;-82
2021/07/31 01:18:24;;;;;;;2.83;1.50;;;;;;;19.17;56.53;99727.78;5114356;28;20040;-80
2021/07/31 01:20:53;;;;;;;5.45;1.35;;;;;;;19.16;56.85;99726.09;5110864;28;20044;-80
2021/07/31 01:23:20;;;;;;;4.68;1.65;;;;;;;19.14;56.99;99722.69;5110632;28;20054;-79
2021/07/31 01:25:48;;;;;;;9.15;2.47;;;;;;;19.11;57.25;99727.50;5098261;28;20051;-79
2021/07/31 01:28:15;;;;;;;5.50;1.98;;;;;;;19.07;57.44;99729.59;5110460;28;20506;-80
2021/07/31 01:30:43;;;;;;;3.53;1.70;;;;;;;19.06;57.64;99729.75;5108839;28;20401;-80
2021/07/31 01:33:12;;;;;;;7.45;1.83;;;;;;;19.01;57.85;99726.66;5113468;28;20559;-80
2021/07/31 01:35:39;;;;;;;4.10;2.13;;;;;;;19.00;57.81;99728.50;5096131;28;20043;-80
2021/07/31 01:38:06;;;;;;;5.32;1.65;;;;;;;19.01;57.84;99732.03;5095494;28;20061;-80
2021/07/31 01:40:33;;;;;;;5.05;1.63;;;;;;;18.97;57.82;99718.03;5106987;28;20058;-82
2021/07/31 01:43:03;;;;;;;4.55;1.50;;;;;;;18.97;58.17;99730.63;5102258;28;20036;-82
2021/07/31 01:45:31;;;;;;;2.60;1.50;;;;;;;18.92;58.12;99720.28;5117569;28;20036;-82
2021/07/31 01:47:58;;;;;;;2.72;1.15;;;;;;;18.87;58.35;99726.09;5122448;28;20040;-82
2021/07/31 01:50:26;;;;;;;2.22;1.60;;;;;;;18.83;58.72;99724.69;5121465;28;20059;-79
2021/07/31 01:52:53;;;;;;;2.45;1.27;;;;;;;18.81;58.83;99726.66;5127155;28;20114;-81
2021/07/31 01:55:20;;;;;;;3.25;1.70;;;;;;;18.79;58.80;99728.63;5120795;28;20140;-82
2021/07/31 01:57:47;;;;;;;4.28;1.60;;;;;;;18.76;58.67;99734.25;5112212;28;20063;-82
2021/07/31 02:00:14;;;;;;;5.05;1.50;;;;;;;18.74;59.35;99732.72;5110552;28;20051;-82
2021/07/31 02:02:41;;;;;;;3.70;1.60;;;;;;;18.70;59.27;99732.16;5109015;28;20039;-82
2021/07/31 02:05:08;;;;;;;5.50;1.80;;;;;;;18.63;59.85;99744.41;5118233;28;20040;-81
2021/07/31 02:07:34;;;;;;;2.60;1.27;;;;;;;18.62;59.61;99747.25;5109448;28;20043;-82
2021/07/31 02:10:01;;;;;;;4.50;1.60;;;;;;;18.57;59.93;99739.59;5108732;28;20062;-83
2021/07/31 02:12:28;;;;;;;4.97;1.80;;;;;;;18.54;60.07;99742.56;5107956;28;20066;-81
2021/07/31 02:14:55;;;;;;;6.10;1.70;;;;;;;18.50;59.94;99739.28;5110218;28;20042;-82
2021/07/31 02:17:21;;;;;;;4.20;1.65;;;;;;;18.46;60.14;99737.88;5109530;28;20043;-82
2021/07/31 02:19:48;;;;;;;4.53;1.58;;;;;;;18.48;60.03;99743.09;5094920;28;20044;-82
2021/07/31 02:22:15;;;;;;;6.63;1.50;;;;;;;18.42;60.16;99740.94;5117869;28;20062;-81
2021/07/31 02:24:42;;;;;;;3.90;1.60;;;;;;;18.37;60.42;99749.44;5124034;28;20038;-82
2021/07/31 02:27:08;;;;;;;4.38;1.92;;;;;;;18.32;60.84;99750.81;5132023;28;20087;-82
2021/07/31 02:29:36;;;;;;;6.05;1.58;;;;;;;18.30;60.83;99745.59;5102356;28;20107;-81
2021/07/31 02:32:03;;;;;;;3.20;1.50;;;;;;;18.27;60.74;99753.03;5123123;27;20055;-81
2021/07/31 02:34:32;;;;;;;6.05;1.67;;;;;;;18.22;61.34;99748.13;5121373;27;20046;-82
2021/07/31 02:36:58;;;;;;;4.57;1.77;;;;;;;18.22;61.05;99745.44;5111863;28;20039;-82
2021/07/31 02:39:25;;;;;;;7.50;2.10;;;;;;;18.18;60.94;99742.16;5133717;27;20111;-82
2021/07/31 02:41:52;;;;;;;3.97;1.77;;;;;;;18.17;61.00;99742.31;5131036;27;20138;-82
2021/07/31 02:44:19;;;;;;;5.05;1.75;;;;;;;18.14;61.01;99750.63;5115934;27;20139;-81
2021/07/31 02:46:45;;;;;;;3.45;1.50;;;;;;;18.13;60.94;99746.22;5127286;27;20052;-82
2021/07/31 02:49:13;;;;;;;6.25;1.52;;;;;;;18.10;60.87;99735.81;5131750;27;20135;-82
2021/07/31 02:51:40;;;;;;;6.20;2.05;;;;;;;18.06;61.23;99729.03;5132216;27;20019;-79
2021/07/31 02:54:08;;;;;;;4.07;1.60;;;;;;;18.05;61.13;99735.38;5135717;27;20075;-81
2021/07/31 02:56:34;;;;;;;4.20;1.80;;;;;;;18.04;61.02;99739.03;5129159;27;20055;-80
2021/07/31 02:59:01;;;;;;;7.07;2.00;;;;;;;18.04;61.46;99736.34;5116029;27;20058;-81
2021/07/31 03:01:30;;;;;;;4.38;1.85;;;;;;;18.04;61.60;99723.78;5116224;27;20495;-82
2021/07/31 03:03:57;;;;;;;3.80;1.30;;;;;;;18.01;60.73;99734.78;5115887;27;20432;-82
2021/07/31 03:06:25;;;;;;;3.63;1.65;;;;;;;17.98;61.12;99740.41;5111417;27;20051;-81
2021/07/31 03:08:52;;;;;;;15.00;2.80;;;;;;;17.97;61.51;99733.34;5114180;27;20044;-82
2021/07/31 03:11:18;;;;;;;7.43;2.33;;;;;;;17.96;61.19;99731.66;5109679;27;20039;-81
2021/07/31 03:13:46;;;;;;;6.07;1.95;;;;;;;17.94;61.07;99727.44;5105346;28;20058;-81
2021/07/31 03:16:13;;;;;;;3.78;1.52;;;;;;;17.96;61.21;99739.69;5112251;27;20403;-81
2021/07/31 03:18:41;;;;;;;6.35;1.73;;;;;;;17.96;61.15;99733.47;5109162;27;20062;-81
2021/07/31 03:21:10;;;;;;;4.88;1.50;;;;;;;17.93;60.73;99737.31;5111000;27;20054;-82
2021/07/31 03:23:38;;;;;;;3.22;1.30;;;;;;;17.90;60.57;99742.06;5111682;27;20055;-82
2021/07/31 03:26:05;;;;;;;3.95;1.38;;;;;;;17.85;60.88;99737.94;5113041;27;20614;-82
2021/07/31 03:28:32;;;;;;;6.25;1.75;;;;;;;17.84;60.88;99732.72;5097278;28;20142;-82
2021/07/31 03:30:58;;;;;;;4.00;1.55;;;;;;;17.83;61.17;99733.72;5109691;27;20071;-82
2021/07/31 03:33:26;;;;;;;3.83;1.70;;;;;;;17.80;60.75;99740.19;5112490;27;20116;-82
2021/07/31 03:35:54;;;;;;;4.95;1.80;;;;;;;17.76;61.23;99738.78;5111912;27;20047;-81
2021/07/31 03:38:21;;;;;;;4.72;1.52;;;;;;;17.72;61.00;99740.00;5106463;27;20044;-82
2021/07/31 03:40:48;;;;;;;4.78;1.40;;;;;;;17.70;61.35;99741.13;5107219;27;20059;-81
2021/07/31 03:43:15;;;;;;;4.55;1.30;;;;;;;17.66;61.26;99743.22;5112419;27;20131;-81
2021/07/31 03:45:44;;;;;;;2.97;1.30;;;;;;;17.62;61.28;99749.81;5126831;27;20051;-82
2021/07/31 03:48:10;;;;;;;7.53;1.65;;;;;;;17.57;61.21;99752.00;5106261;27;20059;-82
2021/07/31 03:50:40;;;;;;;3.22;1.30;;;;;;;17.54;61.58;99744.25;5106353;27;20054;-82
2021/07/31 03:53:07;;;;;;;5.93;1.48;;;;;;;17.51;61.37;99749.84;5108966;27;20078;-82
2021/07/31 03:55:34;;;;;;;5.72;1.75;;;;;;;17.51;61.50;99752.53;5109113;28;20063;-81
2021/07/31 03:58:03;;;;;;;4.10;1.58;;;;;;;17.50;61.84;99751.69;5106800;28;20062;-81
2021/07/31 04:00:30;;;;;;;5.78;1.70;;;;;;;17.48;61.56;99750.09;5087874;28;20075;-81
2021/07/31 04:02:58;;;;;;;2.83;1.35;;;;;;;17.50;61.57;99745.47;5106847;27;20055;-81
2021/07/31 04:05:25;;;;;;;4.72;1.70;;;;;;;17.50;61.70;99742.78;5105589;27;20690;-81
2021/07/31 04:07:51;;;;;;;5.28;1.60;;;;;;;17.50;61.58;99743.66;5109072;27;20442;-81
2021/07/31 04:10:18;;;;;;;5.35;1.60;;;;;;;17.49;61.48;99744.63;5108881;27;20071;-81
2021/07/31 04:12:45;;;;;;;4.78;1.65;;;;;;;17.49;61.56;99746.44;5109931;27;20036;-81
2021/07/31 04:15:12;;;;;;;3.50;1.45;;;;;;;17.49;61.70;99746.44;5111461;27;20047;-81
2021/07/31 04:17:39;;;;;;;4.20;1.55;;;;;;;17.49;61.53;99752.66;5117538;27;20106;-79
2021/07/31 04:20:06;;;;;;;2.70;1.77;;;;;;;17.48;61.47;99750.97;5093793;28;20380;-82
2021/07/31 04:22:33;;;;;;;5.40;1.70;;;;;;;17.49;61.54;99752.66;5108792;27;20036;-82
2021/07/31 04:25:00;;;;;;;3.47;1.48;;;;;;;17.46;61.38;99757.44;5105494;27;20056;-82
2021/07/31 04:27:26;;;;;;;5.88;1.65;;;;;;;17.47;61.40;99753.78;5105752;27;20065;-80
2021/07/31 04:29:53;;;;;;;4.28;1.70;;;;;;;17.42;61.54;99762.22;5104310;28;20046;-82
2021/07/31 04:32:20;;;;;;;5.57;1.60;;;;;;;17.39;61.67;99756.25;5108940;27;20560;-81
2021/07/31 04:34:46;;;;;;;3.88;1.40;;;;;;;17.38;61.71;99759.91;5107774;27;20070;-82
2021/07/31 04:37:13;;;;;;;3.88;1.52;;;;;;;17.37;61.91;99760.88;5107136;27;20150;-80
2021/07/31 04:39:40;;;;;;;6.78;1.85;;;;;;;17.36;61.65;99757.38;5111306;27;20039;-82
2021/07/31 04:42:07;;;;;;;6.60;1.67;;;;;;;17.31;61.71;99758.75;5108172;27;20040;-82
2021/07/31 04:44:33;;;;;;;5.35;1.38;;;;;;;17.30;61.94;99765.94;5110063;28;20114;-82
2021/07/31 04:47:00;;;;;;;14.07;4.45;;;;;;;17.31;61.80;99754.25;5110814;27;20062;-82
2021/07/31 04:49:26;;;;;;;3.03;1.40;;;;;;;17.33;61.80;99764.78;5114015;27;20071;-82
2021/07/31 04:51:53;;;;;;;4.75;1.40;;;;;;;17.33;61.72;99762.13;5115674;27;20035;-81
2021/07/31 04:54:20;;;;;;;9.18;1.50;;;;;;;17.34;61.32;99767.34;5116733;27;20075;-82
2021/07/31 04:56:47;;;;;;;3.85;1.50;;;;;;;17.40;60.91;99764.16;5090766;28;20119;-81
2021/07/31 04:59:17;;;;;;;6.22;1.75;;;;;;;17.36;61.16;99762.72;5113839;28;20094;-81
2021/07/31 05:01:44;;;;;;;7.72;1.80;;;;;;;17.35;61.32;99773.56;5116145;27;20771;-82
2021/07/31 05:04:10;;;;;;;6.95;1.60;;;;;;;17.37;61.08;99775.13;5111649;27;20474;-81
2021/07/31 05:06:38;;;;;;;5.55;1.40;;;;;;;17.37;61.25;99771.59;5111307;27;20122;-81
2021/07/31 05:09:06;;;;;;;4.38;1.33;;;;;;;17.34;61.32;99767.34;5108665;28;20130;-82
2021/07/31 05:11:34;;;;;;;5.13;1.23;;;;;;;17.33;61.04;99762.13;5114015;27;20054;-81
2021/07/31 05:14:03;;;;;;;3.92;1.10;;;;;;;17.32;61.19;99755.06;5113331;27;20047;-81
2021/07/31 05:16:31;;;;;;;6.80;1.67;;;;;;;17.40;60.99;99766.00;5097087;28;20063;-81
2021/07/31 05:18:58;;;;;;;11.30;1.60;;;;;;;17.42;60.80;99764.88;5124824;28;20071;-82
2021/07/31 05:21:24;;;;;;;3.75;1.45;;;;;;;17.49;60.80;99778.56;5118524;28;20055;-81
2021/07/31 05:23:51;;;;;;;4.20;1.40;;;;;;;17.43;61.16;99773.75;5115944;28;20046;-81
2021/07/31 05:26:18;;;;;;;6.10;1.85;;;;;;;17.45;61.46;99771.81;5118461;28;20035;-81
2021/07/31 05:28:44;;;;;;;5.60;1.48;;;;;;;17.46;61.15;99776.19;5121452;28;20050;-81
2021/07/31 05:31:21;;;;;;;4.63;1.48;;;;;;;17.46;61.90;99787.75;5111723;28;20047;-81
2021/07/31 05:33:50;;;;;;;7.90;1.80;;;;;;;17.50;61.17;99778.44;5111033;28;20048;-82
2021/07/31 05:36:16;;;;;;;5.20;1.55;;;;;;;17.54;61.35;99781.72;5090019;28;20463;-82
2021/07/31 05:38:43;;;;;;;4.25;1.55;;;;;;;17.58;61.04;99772.44;5113499;28;20044;-81
2021/07/31 05:41:15;;;;;;;5.57;1.85;;;;;;;17.65;61.03;99784.34;5115490;28;20112;-82
2021/07/31 05:43:43;;;;;;;6.18;1.42;;;;;;;17.69;61.34;99791.16;5118538;28;20139;-82
2021/07/31 05:46:10;;;;;;;4.28;1.50;;;;;;;17.72;60.66;99788.22;5114343;28;20043;-81
2021/07/31 05:48:36;;;;;;;5.57;1.35;;;;;;;17.75;60.45;99779.91;5111547;28;20059;-82
2021/07/31 05:51:03;;;;;;;5.40;1.63;;;;;;;17.79;60.35;99786.69;5116913;28;20131;-82
2021/07/31 05:53:31;;;;;;;4.07;1.30;;;;;;;17.82;60.46;99782.91;5110613;28;20076;-81
2021/07/31 05:55:59;;;;;;;5.45;1.70;;;;;;;17.86;60.17;99782.50;5115862;28;20062;-81
2021/07/31 05:58:27;;;;;;;4.15;2.08;;;;;;;17.89;60.03;99786.75;5111204;28;20087;-81
2021/07/31 06:00:54;;;;;;;5.72;1.40;;;;;;;17.95;59.76;99786.19;5111586;28;20043;-82
2021/07/31 06:03:21;;;;;;;6.10;2.05;;;;;;;17.96;59.86;99795.09;5107879;28;20055;-82
2021/07/31 06:05:48;;;;;;;7.10;1.60;;;;;;;17.92;60.52;99781.13;5116806;27;20518;-81
2021/07/31 06:08:15;;;;;;;7.05;1.50;;;;;;;17.98;60.22;99785.94;5108466;28;20040;-81
2021/07/31 06:10:41;;;;;;;4.35;1.30;;;;;;;18.02;59.96;99794.56;5131033;27;20073;-81
2021/07/31 06:13:08;;;;;;;6.22;1.73;;;;;;;18.07;60.15;99789.66;5136540;27;20071;-81
2021/07/31 06:15:38;;;;;;;3.80;1.55;;;;;;;18.14;59.83;99783.63;5126575;28;20128;-80
2021/07/31 06:18:06;;;;;;;5.82;1.85;;;;;;;18.20;59.77;99783.09;5131010;27;20067;-81
2021/07/31 06:20:33;;;;;;;4.05;1.58;;;;;;;18.42;59.21;99786.53;5134001;27;20107;-81
2021/07/31 06:23:01;;;;;;;3.10;1.58;;;;;;;18.72;58.20;99785.66;5133691;27;20078;-82
2021/07/31 06:25:35;;;;;;;4.18;1.63;;;;;;;19.17;56.62;99791.34;5123657;27;20039;-82
2021/07/31 06:28:02;;;;;;;5.60;1.48;;;;;;;19.59;55.65;99791.91;5128521;27;20048;-81
2021/07/31 06:30:29;;;;;;;5.03;1.77;;;;;;;20.01;54.11;99795.03;5113473;27;20052;-82
2021/07/31 06:32:56;;;;;;;5.30;1.42;;;;;;;20.36;52.64;99788.09;5118739;27;20074;-82
2021/07/31 06:35:23;;;;;;;6.80;1.77;;;;;;;20.62;51.54;99789.97;5122728;27;20622;-82
2021/07/31 06:37:49;;;;;;;4.82;1.75;;;;;;;20.90;51.89;99790.81;5122725;27;20521;-82
2021/07/31 06:40:16;;;;;;;4.97;1.42;;;;;;;21.13;50.66;99791.19;5125754;27;20195;-82
2021/07/31 06:42:43;;;;;;;5.50;1.50;;;;;;;21.37;50.21;99790.59;5125976;27;20075;-82
2021/07/31 06:45:10;;;;;;;2.70;1.17;;;;;;;21.58;48.78;99785.69;5094622;28;20056;-82
2021/07/31 06:47:36;;;;;;;6.47;1.75;;;;;;;21.69;49.07;99788.16;5112886;27;20126;-83
2021/07/31 06:50:09;;;;;;;4.18;1.48;;;;;;;21.73;48.02;99794.03;5111823;27;20487;-81
2021/07/31 06:52:41;;;;;;;5.30;1.25;;;;;;;21.81;48.68;99794.13;5110259;28;20075;-82
2021/07/31 06:55:09;;;;;;;4.28;1.30;;;;;;;21.90;48.92;99787.75;5110018;27;20054;-83
2021/07/31 06:57:38;;;;;;;5.03;1.40;;;;;;;22.17;47.99;99788.63;5107682;27;20055;-81
2021/07/31 07:00:06;;;;;;;7.30;1.60;;;;;;;22.31;46.91;99793.44;5112618;28;20040;-82
2021/07/31 07:02:33;;;;;;;7.00;1.40;;;;;;;22.41;46.38;99799.53;5111463;28;20044;-81
2021/07/31 07:05:01;;;;;;;6.47;1.48;;;;;;;22.39;46.51;99799.69;5108047;27;20054;-82
2021/07/31 07:07:28;;;;;;;4.97;1.48;;;;;;;22.42;46.57;99801.22;5112684;27;20059;-81
2021/07/31 07:09:54;;;;;;;4.78;1.27;;;;;;;22.33;46.76;99802.22;5113715;27;20536;-81
2021/07/31 07:12:21;;;;;;;4.68;1.77;;;;;;;22.36;46.60;99802.69;5107175;27;20097;-81
2021/07/31 07:14:48;;;;;;;5.20;1.55;;;;;;;22.35;46.82;99794.81;5113916;27;20046;-82
2021/07/31 07:17:15;;;;;;;4.90;1.63;;;;;;;22.38;46.06;99791.75;5112361;27;20054;-81
2021/07/31 07:19:41;;;;;;;3.35;1.48;;;;;;;22.42;46.80;99801.22;5113343;28;20043;-80
2021/07/31 07:22:08;;;;;;;3.15;1.08;;;;;;;22.66;46.88;99795.09;5109276;27;20040;-82
2021/07/31 07:24:36;;;;;;;5.28;1.20;;;;;;;22.75;46.03;99797.63;5111726;27;20048;-82
2021/07/31 07:27:03;;;;;;;8.18;1.70;;;;;;;22.71;46.73;99795.41;5109582;27;20075;-82
2021/07/31 07:29:30;;;;;;;4.03;1.30;;;;;;;22.80;46.37;99796.34;5110292;27;20062;-81
2021/07/31 07:31:57;;;;;;;4.63;1.52;;;;;;;23.08;46.65;99800.44;5114430;27;20046;-82
2021/07/31 07:34:23;;;;;;;7.50;1.58;;;;;;;23.21;45.06;99784.59;5125731;28;20116;-82
2021/07/31 07:36:50;;;;;;;2.70;1.40;;;;;;;23.12;45.59;99787.47;5123049;27;20103;-82
2021/07/31 07:39:19;;;;;;;4.07;1.30;;;;;;;22.96;45.11;99786.41;5110101;27;20275;-82
2021/07/31 07:41:45;;;;;;;6.03;1.80;;;;;;;23.02;45.85;99799.25;5112161;27;20028;-81
2021/07/31 07:44:12;;;;;;;4.43;1.30;;;;;;;23.18;45.13;99798.41;5133595;27;20061;-81
2021/07/31 07:46:42;;;;;;;3.95;1.40;;;;;;;23.27;45.28;99797.44;5132256;27;20110;-81
2021/07/31 07:49:09;;;;;;;4.40;1.20;;;;;;;23.25;43.62;99791.34;5127202;27;20056;-80
2021/07/31 07:51:36;;;;;;;4.18;1.48;;;;;;;23.03;44.55;99798.22;5127475;27;20044;-81
2021/07/31 07:54:02;;;;;;;3.95;1.50;;;;;;;22.93;44.94;99792.16;5129342;27;20051;-81
2021/07/31 07:56:29;;;;;;;6.07;1.55;;;;;;;22.78;45.59;99792.94;5135135;27;20039;-82
2021/07/31 07:58:57;;;;;;;3.78;1.50;;;;;;;22.71;45.05;99790.03;5117451;28;20047;-81
2021/07/31 08:01:24;;;;;;;3.03;1.40;;;;;;;22.77;45.84;99804.75;5115051;27;20056;-82
2021/07/31 08:03:54;;;;;;;4.97;1.58;;;;;;;22.89;45.31;99792.63;5117586;27;20071;-82
2021/07/31 08:06:20;;;;;;;2.65;1.50;;;;;;;23.00;45.05;99800.41;5087330;28;20054;-82
2021/07/31 08:08:47;;;;;;;4.82;1.45;;;;;;;23.20;44.81;99807.19;5107892;27;20046;-82
2021/07/31 08:11:17;;;;;;;3.38;1.35;;;;;;;23.23;44.26;99806.88;5118862;27;20118;-81
2021/07/31 08:13:44;;;;;;;2.72;1.50;;;;;;;23.04;44.19;99807.19;5120862;27;20043;-81
2021/07/31 08:16:11;;;;;;;6.68;1.90;;;;;;;22.83;45.26;99801.38;5119719;27;20073;-82
2021/07/31 08:18:38;;;;;;;2.47;1.40;;;;;;;22.73;45.01;99809.59;5121404;27;20027;-87
2021/07/31 08:21:06;;;;;;;5.55;1.77;;;;;;;22.63;45.21;99808.91;5113454;27;20090;-84
2021/07/31 08:23:33;;;;;;;3.72;1.40;;;;;;;22.58;46.15;99801.28;5112388;27;20042;-85
2021/07/31 08:26:03;;;;;;;2.92;1.50;;;;;;;22.73;45.36;99807.75;5116317;28;20032;-81
2021/07/31 08:28:30;;;;;;;4.57;1.47;;;;;;;22.82;45.08;99810.53;5128327;27;20048;-84
2021/07/31 08:30:57;;;;;;;3.88;1.33;;;;;;;22.82;45.27;99813.22;5130346;27;20028;-82
2021/07/31 08:33:23;;;;;;;4.30;1.65;;;;;;;22.72;45.32;99808.75;5133692;27;20044;-84
2021/07/31 08:35:57;;;;;;;4.10;1.60;;;;;;;22.64;45.71;99819.53;5137559;27;20031;-85
2021/07/31 08:38:26;;;;;;;4.25;1.70;;;;;;;22.68;45.28;99818.19;5118314;28;20040;-84
2021/07/31 08:40:53;;;;;;;3.53;1.60;;;;;;;22.81;45.80;99814.22;5126138;28;20103;-84
2021/07/31 08:43:21;;;;;;;6.40;1.90;;;;;;;23.05;45.01;99820.53;5123693;27;20044;-84
2021/07/31 08:45:52;;;;;;;4.47;2.08;;;;;;;23.22;45.60;99820.53;5132389;27;20103;-84
2021/07/31 08:48:25;;;;;;;4.80;1.55;;;;;;;23.25;44.21;99822.91;5125130;27;20044;-83
2021/07/31 08:51:00;;;;;;;3.17;1.88;;;;;;;23.36;44.13;99815.31;5133573;27;20058;-85
2021/07/31 08:53:28;;;;;;;4.47;1.80;;;;;;;23.42;43.33;99809.25;5126897;28;20051;-84
2021/07/31 08:56:00;;;;;;;3.00;1.38;;;;;;;23.32;43.89;99813.13;5113365;28;20047;-84
2021/07/31 08:58:27;;;;;;;3.20;1.25;;;;;;;23.18;44.14;99811.91;5125096;28;20107;-82
2021/07/31 09:00:56;;;;;;;4.90;1.92;;;;;;;23.12;44.09;99815.31;5122464;28;20044;-83
2021/07/31 09:03:24;;;;;;;3.25;1.48;;;;;;;23.15;44.21;99814.09;5122143;28;20162;-84
2021/07/31 09:05:52;;;;;;;3.83;1.80;;;;;;;23.17;44.78;99822.88;5114450;28;20047;-87
2021/07/31 09:08:22;;;;;;;3.05;1.52;;;;;;;23.10;44.98;99820.03;5116927;28;20085;-85
2021/07/31 09:10:54;;;;;;;3.03;1.42;;;;;;;23.04;44.43;99805.31;5118268;27;20133;-79
2021/07/31 09:13:27;;;;;;;2.65;1.50;;;;;;;22.98;44.35;99810.56;5120679;28;20040;-79
2021/07/31 09:15:54;;;;;;;6.00;1.60;;;;;;;22.98;44.83;99815.97;5112620;28;20048;-80
2021/07/31 09:18:26;;;;;;;3.13;1.90;;;;;;;23.02;44.64;99807.34;5115014;28;20044;-81
2021/07/31 09:21:07;;;;;;;3.70;1.83;;;;;;;23.00;43.92;99795.84;5110228;28;20047;-81
2021/07/31 09:23:44;;;;;;;5.53;1.88;;;;;;;23.28;44.35;99798.28;5115413;28;20043;-82
2021/07/31 09:26:34;;;;;;;6.25;1.73;;;;;;;23.38;42.62;99807.91;5107264;28;20044;-84
2021/07/31 09:29:08;;;;;;;4.88;1.60;;;;;;;23.41;42.77;99812.97;5114692;28;20047;-81
2021/07/31 09:31:57;;;;;;;4.95;1.60;;;;;;;23.44;42.57;99819.91;5116886;28;20368;-81
2021/07/31 09:34:27;;;;;;;3.25;1.77;;;;;;;23.24;42.74;99813.97;5113001;28;20044;-83
2021/07/31 09:37:17;;;;;;;6.13;1.30;;;;;;;23.15;43.55;99814.94;5111323;28;20048;-83
2021/07/31 09:39:52;;;;;;;3.30;1.63;;;;;;;23.09;43.35;99812.94;5118599;27;20069;-82
2021/07/31 09:42:30;;;;;;;3.17;1.38;;;;;;;22.96;43.05;99810.72;5115535;28;20540;-83
2021/07/31 09:45:00;;;;;;;4.32;1.70;;;;;;;22.88;43.72;99812.53;5118842;27;20040;-80
2021/07/31 09:47:28;;;;;;;3.30;1.90;;;;;;;22.95;43.79;99808.19;5114342;28;20043;-80
2021/07/31 09:49:57;;;;;;;4.05;2.08;;;;;;;22.86;43.03;99811.84;5102487;28;20051;-79
2021/07/31 09:52:25;;;;;;;4.00;1.53;;;;;;;22.77;42.75;99810.16;5119976;27;20057;-83
2021/07/31 09:54:54;;;;;;;2.65;1.40;;;;;;;22.66;42.94;99804.03;5114135;27;20486;-78
2021/07/31 09:57:24;;;;;;;4.05;1.45;;;;;;;22.66;43.36;99805.88;5118581;27;20062;-79
2021/07/31 09:59:51;;;;;;;2.97;1.30;;;;;;;22.61;43.35;99808.22;5124773;27;20355;-81
2021/07/31 10:02:20;;;;;;;1.83;1.10;;;;;;;22.70;43.63;99810.78;5118449;27;20449;-83
2021/07/31 10:04:48;;;;;;;3.72;1.65;;;;;;;22.76;43.21;99809.28;5136967;27;20458;-81
2021/07/31 10:07:17;;;;;;;3.92;1.20;;;;;;;22.86;43.08;99811.84;5122774;28;20095;-80
2021/07/31 10:09:50;;;;;;;3.38;1.50;;;;;;;22.83;42.54;99809.47;5125154;27;20104;-81
2021/07/31 10:12:22;;;;;;;3.97;1.20;;;;;;;22.77;42.60;99805.59;5126833;27;20062;-80
2021/07/31 10:14:50;;;;;;;5.95;1.30;;;;;;;22.80;42.24;99799.03;5128952;27;20082;-81
2021/07/31 10:17:17;;;;;;;2.15;1.42;;;;;;;22.77;42.79;99802.06;5131144;28;20036;-81
2021/07/31 10:19:46;;;;;;;3.95;1.40;;;;;;;22.69;43.04;99792.88;5125948;27;20047;-81
2021/07/31 10:22:14;;;;;;;4.57;1.70;;;;;;;22.77;42.86;99799.34;5128874;27;20053;-82
2021/07/31 10:24:57;;;;;;;2.60;1.40;;;;;;;22.66;42.86;99798.63;5121791;27;20048;-83
2021/07/31 10:27:24;;;;;;;2.20;1.27;;;;;;;22.70;43.03;99804.53;5120956;27;20058;-81
2021/07/31 10:29:52;;;;;;;2.35;1.38;;;;;;;22.72;42.82;99808.75;5126768;27;20053;-81
2021/07/31 10:32:19;;;;;;;3.45;1.48;;;;;;;22.86;42.49;99792.97;5110473;28;20035;-82
2021/07/31 10:34:48;;;;;;;2.17;1.65;;;;;;;22.89;42.77;99798.03;5130392;27;20099;-83
2021/07/31 10:37:29;;;;;;;3.95;1.50;;;;;;;23.00;41.64;99792.31;5127642;27;20044;-85
2021/07/31 10:40:03;;;;;;;2.53;1.45;;;;;;;23.09;41.52;99781.38;5129929;27;20063;-82
2021/07/31 10:42:51;;;;;;;3.90;1.35;;;;;;;23.29;41.57;99795.41;5135138;27;20039;-83
2021/07/31 10:45:25;;;;;;;1.75;1.27;;;;;;;23.65;41.41;99786.97;5126545;27;20067;-83
2021/07/31 10:47:55;;;;;;;3.33;1.20;;;;;;;23.95;40.25;99790.81;5097622;28;20071;-83
2021/07/31 10:50:22;;;;;;;1.75;1.10;;;;;;;24.18;39.15;99777.41;5116465;27;20410;-82
2021/07/31 10:53:10;;;;;;;3.15;1.30;;;;;;;24.25;38.49;99778.41;5119741;27;20122;-82
2021/07/31 10:55:37;;;;;;;3.15;1.35;;;;;;;24.29;39.00;99772.47;5115332;28;20048;-81
2021/07/31 10:58:18;;;;;;;3.17;1.90;;;;;;;24.37;39.42;99777.03;5113138;27;20050;-83
2021/07/31 11:00:47;;;;;;;3.13;1.48;;;;;;;24.25;38.92;99770.28;5118168;27;20126;-81
2021/07/31 11:03:23;;;;;;;3.20;1.33;;;;;;;24.25;39.18;99773.00;5110357;27;20522;-82
2021/07/31 11:06:05;;;;;;;2.58;1.45;;;;;;;24.24;39.14;99777.56;5108706;27;20066;-83
2021/07/31 11:08:52;;;;;;;2.42;1.40;;;;;;;24.30;39.49;99789.56;5108730;27;21200;-83
2021/07/31 11:11:25;;;;;;;2.90;1.20;;;;;;;24.25;38.67;99781.97;5115556;28;20530;-82
2021/07/31 11:13:56;;;;;;;1.15;1.08;;;;;;;24.17;38.98;99768.44;5107487;28;20100;-83
2021/07/31 11:16:26;;;;;;;2.78;1.45;;;;;;;24.04;39.44;99782.50;5125573;28;20101;-82
2021/07/31 11:19:01;;;;;;;3.15;1.48;;;;;;;24.01;39.93;99772.03;5124228;28;20046;-82
2021/07/31 11:21:39;;;;;;;4.65;1.40;;;;;;;24.33;39.21;99776.53;5131286;28;20089;-82
2021/07/31 11:24:10;;;;;;;3.55;1.40;;;;;;;24.70;37.81;99770.44;5111760;28;20107;-82
2021/07/31 11:26:51;;;;;;;3.92;1.40;;;;;;;25.03;36.99;99776.50;5147116;27;20109;-83
2021/07/31 11:29:21;;;;;;;3.08;1.50;;;;;;;25.36;37.10;99771.69;5124719;27;20108;-81
2021/07/31 11:32:03;;;;;;;2.10;1.30;;;;;;;25.57;35.37;99773.72;5127854;28;20071;-83
2021/07/31 11:34:41;;;;;;;3.00;1.23;;;;;;;25.35;35.67;99778.13;5129044;27;20066;-83
2021/07/31 11:37:08;;;;;;;3.70;1.60;;;;;;;25.18;35.77;99776.59;5107352;27;20410;-83
2021/07/31 11:39:36;;;;;;;2.50;1.55;;;;;;;25.18;36.35;99773.88;5112999;27;20062;-83
2021/07/31 11:42:08;;;;;;;2.85;1.50;;;;;;;25.05;36.40;99774.47;5122044;27;20425;-83